sensor_id;sensor_type;location;lat;lon;timestamp;temperature;humidity
51837;DHT22;38941;53.254;6.600;2023-02-28T00:01:48;5.90;99.90
51837;DHT22;38941;53.254;6.600;2023-02-28T00:03:48;6.30;99.90
51837;DHT22;38941;53.254;6.600;2023-02-28T00:05:49;5.90;99.90
51837;DHT22;38941;53.254;6.600;2023-02-28T00:07:51;6.00;99.90
51837;DHT22;38941;53.254;6.600;2023-02-28T00:09:52;5.90;99.90
51837;DHT22;38941;53.254;6.600;2023-02-28T00:11:52;6.00;99.90
51837;DHT22;38941;53.254;6.600;2023-02-28T00:13:53;5.90;99.90
51837;DHT22;38941;53.254;6.600;2023-02-28T00:16:02;5.90;99.90
51837;DHT22;38941;53.254;6.600;2023-02-28T00:18:04;6.00;99.90
51837;DHT22;38941;53.254;6.600;2023-02-28T00:20:06;5.90;99.90
51837;DHT22;38941;53.254;6.600;2023-02-28T00:22:17;5.90;99.90
51837;DHT22;38941;53.254;6.600;2023-02-28T00:24:19;5.90;99.90
51837;DHT22;38941;53.254;6.600;2023-02-28T00:26:21;5.90;99.90
51837;DHT22;38941;53.254;6.600;2023-02-28T00:28:22;6.10;99.90
51837;DHT22;38941;53.254;6.600;2023-02-28T00:30:24;6.40;99.90
51837;DHT22;38941;53.254;6.600;2023-02-28T00:32:24;5.80;99.90
51837;DHT22;38941;53.254;6.600;2023-02-28T00:34:25;5.80;99.90
51837;DHT22;38941;53.254;6.600;2023-02-28T00:36:26;5.80;99.90
51837;DHT22;38941;53.254;6.600;2023-02-28T00:38:28;5.70;99.90
51837;DHT22;38941;53.254;6.600;2023-02-28T00:40:29;6.20;99.90
51837;DHT22;38941;53.254;6.600;2023-02-28T00:42:29;5.60;99.90
51837;DHT22;38941;53.254;6.600;2023-02-28T00:44:31;5.70;99.90
51837;DHT22;38941;53.254;6.600;2023-02-28T00:46:33;5.60;99.90
51837;DHT22;38941;53.254;6.600;2023-02-28T00:48:34;5.80;99.90
51837;DHT22;38941;53.254;6.600;2023-02-28T00:50:35;4.50;99.90
51837;DHT22;38941;53.254;6.600;2023-02-28T00:52:37;5.60;99.90
51837;DHT22;38941;53.254;6.600;2023-02-28T00:54:37;5.60;99.90
51837;DHT22;38941;53.254;6.600;2023-02-28T00:56:39;5.60;99.90
51837;DHT22;38941;53.254;6.600;2023-02-28T00:58:41;5.50;99.90
51837;DHT22;38941;53.254;6.600;2023-02-28T01:00:42;5.60;99.90
51837;DHT22;38941;53.254;6.600;2023-02-28T01:02:43;5.60;99.90
51837;DHT22;38941;53.254;6.600;2023-02-28T01:04:44;5.60;99.90
51837;DHT22;38941;53.254;6.600;2023-02-28T01:06:46;5.60;99.90
51837;DHT22;38941;53.254;6.600;2023-02-28T01:08:46;5.30;99.90
51837;DHT22;38941;53.254;6.600;2023-02-28T01:10:48;5.50;99.90
51837;DHT22;38941;53.254;6.600;2023-02-28T01:12:49;5.50;99.90
51837;DHT22;38941;53.254;6.600;2023-02-28T01:14:50;5.50;99.90
51837;DHT22;38941;53.254;6.600;2023-02-28T01:16:51;5.50;99.90
51837;DHT22;38941;53.254;6.600;2023-02-28T01:18:52;5.60;99.90
51837;DHT22;38941;53.254;6.600;2023-02-28T01:20:53;5.50;99.90
51837;DHT22;38941;53.254;6.600;2023-02-28T01:22:53;5.50;99.90
51837;DHT22;38941;53.254;6.600;2023-02-28T01:24:54;5.50;99.90
51837;DHT22;38941;53.254;6.600;2023-02-28T01:26:55;6.20;99.90
51837;DHT22;38941;53.254;6.600;2023-02-28T01:28:57;5.60;99.90
51837;DHT22;38941;53.254;6.600;2023-02-28T01:30:58;5.50;99.90
51837;DHT22;38941;53.254;6.600;2023-02-28T01:32:59;5.60;99.90
51837;DHT22;38941;53.254;6.600;2023-02-28T01:35:00;5.50;99.90
51837;DHT22;38941;53.254;6.600;2023-02-28T01:37:01;4.80;99.90
51837;DHT22;38941;53.254;6.600;2023-02-28T01:39:02;5.50;99.90
51837;DHT22;38941;53.254;6.600;2023-02-28T01:41:04;5.60;99.90
51837;DHT22;38941;53.254;6.600;2023-02-28T01:43:27;5.60;99.90
51837;DHT22;38941;53.254;6.600;2023-02-28T01:45:29;5.80;99.90
51837;DHT22;38941;53.254;6.600;2023-02-28T01:47:36;5.50;99.90
51837;DHT22;38941;53.254;6.600;2023-02-28T01:49:39;5.60;99.90
51837;DHT22;38941;53.254;6.600;2023-02-28T01:51:49;5.50;99.90
51837;DHT22;38941;53.254;6.600;2023-02-28T01:54:00;5.50;99.90
51837;DHT22;38941;53.254;6.600;2023-02-28T01:56:04;5.50;99.90
51837;DHT22;38941;53.254;6.600;2023-02-28T01:58:07;5.50;99.90
51837;DHT22;38941;53.254;6.600;2023-02-28T02:00:12;5.50;99.90
51837;DHT22;38941;53.254;6.600;2023-02-28T02:02:17;5.60;99.90
51837;DHT22;38941;53.254;6.600;2023-02-28T02:04:18;5.40;99.90
51837;DHT22;38941;53.254;6.600;2023-02-28T02:06:35;5.80;99.90
51837;DHT22;38941;53.254;6.600;2023-02-28T02:08:37;5.50;99.90
51837;DHT22;38941;53.254;6.600;2023-02-28T02:10:50;5.50;99.90
51837;DHT22;38941;53.254;6.600;2023-02-28T02:17:36;5.80;99.90
51837;DHT22;38941;53.254;6.600;2023-02-28T02:24:58;5.50;99.90
51837;DHT22;38941;53.254;6.600;2023-02-28T02:32:13;5.50;99.90
51837;DHT22;38941;53.254;6.600;2023-02-28T02:36:28;5.50;99.90
51837;DHT22;38941;53.254;6.600;2023-02-28T02:38:35;5.50;99.90
51837;DHT22;38941;53.254;6.600;2023-02-28T02:40:51;5.50;99.90
51837;DHT22;38941;53.254;6.600;2023-02-28T02:43:01;5.60;99.90
51837;DHT22;38941;53.254;6.600;2023-02-28T02:45:08;5.60;99.90
51837;DHT22;38941;53.254;6.600;2023-02-28T02:47:13;5.60;99.90
51837;DHT22;38941;53.254;6.600;2023-02-28T02:49:46;5.90;99.90
51837;DHT22;38941;53.254;6.600;2023-02-28T02:51:49;5.50;99.90
51837;DHT22;38941;53.254;6.600;2023-02-28T02:54:03;5.80;99.90
51837;DHT22;38941;53.254;6.600;2023-02-28T02:56:06;5.50;99.90
51837;DHT22;38941;53.254;6.600;2023-02-28T02:58:11;5.50;99.90
51837;DHT22;38941;53.254;6.600;2023-02-28T03:00:16;5.40;99.90
51837;DHT22;38941;53.254;6.600;2023-02-28T03:02:21;5.40;99.90
51837;DHT22;38941;53.254;6.600;2023-02-28T03:04:26;5.40;99.90
51837;DHT22;38941;53.254;6.600;2023-02-28T03:06:28;5.40;99.90
51837;DHT22;38941;53.254;6.600;2023-02-28T03:08:33;5.40;99.90
51837;DHT22;38941;53.254;6.600;2023-02-28T03:10:45;5.40;99.90
51837;DHT22;38941;53.254;6.600;2023-02-28T03:12:58;5.40;99.90
51837;DHT22;38941;53.254;6.600;2023-02-28T03:15:32;5.50;99.90
51837;DHT22;38941;53.254;6.600;2023-02-28T03:27:11;5.20;99.90
51837;DHT22;38941;53.254;6.600;2023-02-28T03:33:42;5.00;99.90
51837;DHT22;38941;53.254;6.600;2023-02-28T03:35:59;5.00;99.90
51837;DHT22;38941;53.254;6.600;2023-02-28T03:38:18;4.90;99.90
51837;DHT22;38941;53.254;6.600;2023-02-28T03:40:23;4.90;99.90
51837;DHT22;38941;53.254;6.600;2023-02-28T03:42:28;4.90;99.90
51837;DHT22;38941;53.254;6.600;2023-02-28T03:44:36;4.90;99.90
51837;DHT22;38941;53.254;6.600;2023-02-28T03:47:00;4.80;99.90
51837;DHT22;38941;53.254;6.600;2023-02-28T03:49:18;4.80;99.90
51837;DHT22;38941;53.254;6.600;2023-02-28T03:51:23;4.70;99.90
51837;DHT22;38941;53.254;6.600;2023-02-28T03:53:32;4.70;99.90
51837;DHT22;38941;53.254;6.600;2023-02-28T03:55:44;5.20;99.90
51837;DHT22;38941;53.254;6.600;2023-02-28T03:58:15;4.60;99.90
51837;DHT22;38941;53.254;6.600;2023-02-28T04:00:21;4.60;99.90
51837;DHT22;38941;53.254;6.600;2023-02-28T04:02:27;4.50;99.90
51837;DHT22;38941;53.254;6.600;2023-02-28T04:04:28;5.10;99.90
51837;DHT22;38941;53.254;6.600;2023-02-28T04:06:32;4.60;99.90
51837;DHT22;38941;53.254;6.600;2023-02-28T04:08:34;4.40;99.90
51837;DHT22;38941;53.254;6.600;2023-02-28T04:10:36;5.70;99.90
51837;DHT22;38941;53.254;6.600;2023-02-28T04:12:36;4.40;99.90
51837;DHT22;38941;53.254;6.600;2023-02-28T04:14:37;4.80;99.90
51837;DHT22;38941;53.254;6.600;2023-02-28T04:16:41;4.30;99.90
51837;DHT22;38941;53.254;6.600;2023-02-28T04:18:42;4.20;99.90
51837;DHT22;38941;53.254;6.600;2023-02-28T04:20:46;4.50;99.90
51837;DHT22;38941;53.254;6.600;2023-02-28T04:22:48;4.10;99.90
51837;DHT22;38941;53.254;6.600;2023-02-28T04:24:48;4.80;99.90
51837;DHT22;38941;53.254;6.600;2023-02-28T04:26:51;4.20;99.90
51837;DHT22;38941;53.254;6.600;2023-02-28T04:28:52;4.10;99.90
51837;DHT22;38941;53.254;6.600;2023-02-28T04:30:57;4.10;99.90
51837;DHT22;38941;53.254;6.600;2023-02-28T04:32:59;4.10;99.90
51837;DHT22;38941;53.254;6.600;2023-02-28T04:35:01;4.00;99.90
51837;DHT22;38941;53.254;6.600;2023-02-28T04:37:03;4.00;99.90
51837;DHT22;38941;53.254;6.600;2023-02-28T04:39:05;4.00;99.90
51837;DHT22;38941;53.254;6.600;2023-02-28T04:41:06;4.00;99.90
51837;DHT22;38941;53.254;6.600;2023-02-28T04:43:07;4.00;99.90
51837;DHT22;38941;53.254;6.600;2023-02-28T04:45:08;4.00;99.90
51837;DHT22;38941;53.254;6.600;2023-02-28T04:47:11;3.90;99.90
51837;DHT22;38941;53.254;6.600;2023-02-28T04:49:13;4.00;99.90
51837;DHT22;38941;53.254;6.600;2023-02-28T04:51:17;4.00;99.90
51837;DHT22;38941;53.254;6.600;2023-02-28T04:53:20;3.90;99.90
51837;DHT22;38941;53.254;6.600;2023-02-28T04:55:21;4.90;99.90
51837;DHT22;38941;53.254;6.600;2023-02-28T04:57:22;4.40;99.90
51837;DHT22;38941;53.254;6.600;2023-02-28T04:59:22;4.80;99.90
51837;DHT22;38941;53.254;6.600;2023-02-28T05:01:32;3.80;99.90
51837;DHT22;38941;53.254;6.600;2023-02-28T05:03:34;3.90;99.90
51837;DHT22;38941;53.254;6.600;2023-02-28T05:05:35;4.60;99.90
51837;DHT22;38941;53.254;6.600;2023-02-28T05:07:36;4.00;99.90
51837;DHT22;38941;53.254;6.600;2023-02-28T05:09:37;4.00;99.90
51837;DHT22;38941;53.254;6.600;2023-02-28T05:11:39;3.70;99.90
51837;DHT22;38941;53.254;6.600;2023-02-28T05:13:40;3.70;99.90
51837;DHT22;38941;53.254;6.600;2023-02-28T05:15:40;3.70;99.90
51837;DHT22;38941;53.254;6.600;2023-02-28T05:17:41;3.70;99.90
51837;DHT22;38941;53.254;6.600;2023-02-28T05:19:42;4.20;99.90
51837;DHT22;38941;53.254;6.600;2023-02-28T05:21:52;3.70;99.90
51837;DHT22;38941;53.254;6.600;2023-02-28T05:23:55;3.60;99.90
51837;DHT22;38941;53.254;6.600;2023-02-28T05:25:57;3.60;99.90
51837;DHT22;38941;53.254;6.600;2023-02-28T05:27:57;3.60;99.90
51837;DHT22;38941;53.254;6.600;2023-02-28T05:29:59;3.90;99.90
51837;DHT22;38941;53.254;6.600;2023-02-28T05:32:03;3.60;99.90
51837;DHT22;38941;53.254;6.600;2023-02-28T05:34:03;3.70;99.90
51837;DHT22;38941;53.254;6.600;2023-02-28T05:36:07;3.70;99.90
51837;DHT22;38941;53.254;6.600;2023-02-28T05:38:08;3.70;99.90
51837;DHT22;38941;53.254;6.600;2023-02-28T05:40:10;3.60;99.90
51837;DHT22;38941;53.254;6.600;2023-02-28T05:42:11;3.60;99.90
51837;DHT22;38941;53.254;6.600;2023-02-28T05:44:12;3.50;99.90
51837;DHT22;38941;53.254;6.600;2023-02-28T05:46:14;3.50;99.90
51837;DHT22;38941;53.254;6.600;2023-02-28T05:48:15;3.50;99.90
51837;DHT22;38941;53.254;6.600;2023-02-28T05:50:16;3.50;99.90
51837;DHT22;38941;53.254;6.600;2023-02-28T05:52:17;4.30;99.90
51837;DHT22;38941;53.254;6.600;2023-02-28T05:54:17;3.50;99.90
51837;DHT22;38941;53.254;6.600;2023-02-28T05:56:18;3.50;99.90
51837;DHT22;38941;53.254;6.600;2023-02-28T05:58:19;4.00;99.90
51837;DHT22;38941;53.254;6.600;2023-02-28T06:00:20;4.40;99.90
51837;DHT22;38941;53.254;6.600;2023-02-28T06:02:22;3.50;99.90
51837;DHT22;38941;53.254;6.600;2023-02-28T06:04:22;4.00;99.90
51837;DHT22;38941;53.254;6.600;2023-02-28T06:06:23;4.50;99.90
51837;DHT22;38941;53.254;6.600;2023-02-28T06:08:24;3.40;99.90
51837;DHT22;38941;53.254;6.600;2023-02-28T06:10:25;3.40;99.90
51837;DHT22;38941;53.254;6.600;2023-02-28T06:12:26;3.40;99.90
51837;DHT22;38941;53.254;6.600;2023-02-28T06:14:28;3.50;99.90
51837;DHT22;38941;53.254;6.600;2023-02-28T06:16:31;3.40;99.90
51837;DHT22;38941;53.254;6.600;2023-02-28T06:18:31;4.60;99.90
51837;DHT22;38941;53.254;6.600;2023-02-28T06:20:32;3.30;99.90
51837;DHT22;38941;53.254;6.600;2023-02-28T06:22:35;4.40;99.90
51837;DHT22;38941;53.254;6.600;2023-02-28T06:24:36;2.40;99.90
51837;DHT22;38941;53.254;6.600;2023-02-28T06:26:37;3.30;99.90
51837;DHT22;38941;53.254;6.600;2023-02-28T06:28:39;3.30;99.90
51837;DHT22;38941;53.254;6.600;2023-02-28T06:30:39;3.30;99.90
51837;DHT22;38941;53.254;6.600;2023-02-28T06:32:40;4.70;99.90
51837;DHT22;38941;53.254;6.600;2023-02-28T06:34:41;3.30;99.90
51837;DHT22;38941;53.254;6.600;2023-02-28T06:36:42;3.30;99.90
51837;DHT22;38941;53.254;6.600;2023-02-28T06:38:44;3.30;99.90
51837;DHT22;38941;53.254;6.600;2023-02-28T06:40:53;3.20;99.90
51837;DHT22;38941;53.254;6.600;2023-02-28T06:42:55;4.00;99.90
51837;DHT22;38941;53.254;6.600;2023-02-28T06:44:56;3.20;99.90
51837;DHT22;38941;53.254;6.600;2023-02-28T06:46:57;3.20;99.90
51837;DHT22;38941;53.254;6.600;2023-02-28T06:48:57;3.20;99.90
51837;DHT22;38941;53.254;6.600;2023-02-28T06:51:03;4.20;99.90
51837;DHT22;38941;53.254;6.600;2023-02-28T06:53:05;2.60;99.90
51837;DHT22;38941;53.254;6.600;2023-02-28T06:55:07;3.80;99.90
51837;DHT22;38941;53.254;6.600;2023-02-28T06:57:08;3.10;99.90
51837;DHT22;38941;53.254;6.600;2023-02-28T06:59:10;3.00;99.90
51837;DHT22;38941;53.254;6.600;2023-02-28T07:01:13;3.10;99.90
51837;DHT22;38941;53.254;6.600;2023-02-28T07:03:14;4.10;99.90
51837;DHT22;38941;53.254;6.600;2023-02-28T07:05:17;3.30;99.90
51837;DHT22;38941;53.254;6.600;2023-02-28T07:07:21;3.00;99.90
51837;DHT22;38941;53.254;6.600;2023-02-28T07:09:22;2.90;99.90
51837;DHT22;38941;53.254;6.600;2023-02-28T07:11:25;4.30;99.90
51837;DHT22;38941;53.254;6.600;2023-02-28T07:13:27;3.60;99.90
51837;DHT22;38941;53.254;6.600;2023-02-28T07:15:29;2.80;99.90
51837;DHT22;38941;53.254;6.600;2023-02-28T07:17:30;2.90;99.90
51837;DHT22;38941;53.254;6.600;2023-02-28T07:19:33;3.70;99.90
51837;DHT22;38941;53.254;6.600;2023-02-28T07:21:34;2.90;99.90
51837;DHT22;38941;53.254;6.600;2023-02-28T07:23:36;3.40;99.90
51837;DHT22;38941;53.254;6.600;2023-02-28T07:25:40;3.90;99.90
51837;DHT22;38941;53.254;6.600;2023-02-28T07:27:42;3.00;99.90
51837;DHT22;38941;53.254;6.600;2023-02-28T07:29:43;3.20;99.90
51837;DHT22;38941;53.254;6.600;2023-02-28T07:31:43;3.40;99.90
51837;DHT22;38941;53.254;6.600;2023-02-28T07:33:44;4.50;99.90
51837;DHT22;38941;53.254;6.600;2023-02-28T07:35:46;2.80;99.90
51837;DHT22;38941;53.254;6.600;2023-02-28T07:37:47;3.30;99.90
51837;DHT22;38941;53.254;6.600;2023-02-28T07:39:48;3.30;99.90
51837;DHT22;38941;53.254;6.600;2023-02-28T07:41:48;3.90;99.90
51837;DHT22;38941;53.254;6.600;2023-02-28T07:43:53;2.90;99.90
51837;DHT22;38941;53.254;6.600;2023-02-28T07:45:55;3.70;99.90
51837;DHT22;38941;53.254;6.600;2023-02-28T07:47:56;3.00;99.90
51837;DHT22;38941;53.254;6.600;2023-02-28T07:49:57;4.00;99.90
51837;DHT22;38941;53.254;6.600;2023-02-28T07:51:58;3.10;99.90
51837;DHT22;38941;53.254;6.600;2023-02-28T07:53:59;3.50;99.90
51837;DHT22;38941;53.254;6.600;2023-02-28T07:56:02;3.10;99.90
51837;DHT22;38941;53.254;6.600;2023-02-28T07:58:03;3.20;99.90
51837;DHT22;38941;53.254;6.600;2023-02-28T08:00:06;3.60;99.90
51837;DHT22;38941;53.254;6.600;2023-02-28T08:02:13;3.20;99.90
51837;DHT22;38941;53.254;6.600;2023-02-28T08:04:14;3.90;99.90
51837;DHT22;38941;53.254;6.600;2023-02-28T08:06:18;3.20;99.90
51837;DHT22;38941;53.254;6.600;2023-02-28T08:08:21;3.80;99.90
51837;DHT22;38941;53.254;6.600;2023-02-28T08:10:23;3.30;99.90
51837;DHT22;38941;53.254;6.600;2023-02-28T08:12:26;4.50;99.90
51837;DHT22;38941;53.254;6.600;2023-02-28T08:14:28;3.40;99.90
51837;DHT22;38941;53.254;6.600;2023-02-28T08:16:29;3.40;99.90
51837;DHT22;38941;53.254;6.600;2023-02-28T08:18:30;3.50;99.90
51837;DHT22;38941;53.254;6.600;2023-02-28T08:20:33;3.40;99.90
51837;DHT22;38941;53.254;6.600;2023-02-28T08:22:35;3.80;99.90
51837;DHT22;38941;53.254;6.600;2023-02-28T08:24:35;3.60;99.90
51837;DHT22;38941;53.254;6.600;2023-02-28T08:26:36;3.60;99.90
51837;DHT22;38941;53.254;6.600;2023-02-28T08:28:38;4.30;99.90
51837;DHT22;38941;53.254;6.600;2023-02-28T08:30:39;4.20;99.90
51837;DHT22;38941;53.254;6.600;2023-02-28T08:32:41;3.00;99.90
51837;DHT22;38941;53.254;6.600;2023-02-28T08:34:42;3.80;99.90
51837;DHT22;38941;53.254;6.600;2023-02-28T08:36:44;3.90;99.90
51837;DHT22;38941;53.254;6.600;2023-02-28T08:38:48;4.10;99.90
51837;DHT22;38941;53.254;6.600;2023-02-28T08:40:49;4.10;99.90
51837;DHT22;38941;53.254;6.600;2023-02-28T08:42:50;4.10;99.90
51837;DHT22;38941;53.254;6.600;2023-02-28T08:44:51;4.80;99.90
51837;DHT22;38941;53.254;6.600;2023-02-28T08:46:52;5.60;99.90
51837;DHT22;38941;53.254;6.600;2023-02-28T08:48:53;5.50;99.90
51837;DHT22;38941;53.254;6.600;2023-02-28T08:50:59;4.80;99.90
51837;DHT22;38941;53.254;6.600;2023-02-28T08:53:00;4.70;99.90
51837;DHT22;38941;53.254;6.600;2023-02-28T08:55:01;4.60;99.90
51837;DHT22;38941;53.254;6.600;2023-02-28T08:57:02;4.60;99.90
51837;DHT22;38941;53.254;6.600;2023-02-28T08:59:03;4.60;99.90
51837;DHT22;38941;53.254;6.600;2023-02-28T09:01:12;5.20;99.90
51837;DHT22;38941;53.254;6.600;2023-02-28T09:03:13;4.70;99.90
51837;DHT22;38941;53.254;6.600;2023-02-28T09:05:14;4.70;99.90
51837;DHT22;38941;53.254;6.600;2023-02-28T09:07:15;4.70;99.90
51837;DHT22;38941;53.254;6.600;2023-02-28T09:09:17;4.80;99.90
51837;DHT22;38941;53.254;6.600;2023-02-28T09:11:20;5.40;99.90
51837;DHT22;38941;53.254;6.600;2023-02-28T09:13:21;4.80;99.90
51837;DHT22;38941;53.254;6.600;2023-02-28T09:15:22;4.90;99.90
51837;DHT22;38941;53.254;6.600;2023-02-28T09:17:23;4.90;99.90
51837;DHT22;38941;53.254;6.600;2023-02-28T09:19:23;4.90;99.90
51837;DHT22;38941;53.254;6.600;2023-02-28T09:21:25;4.90;99.90
51837;DHT22;38941;53.254;6.600;2023-02-28T09:23:27;5.00;99.90
51837;DHT22;38941;53.254;6.600;2023-02-28T09:25:28;5.40;99.90
51837;DHT22;38941;53.254;6.600;2023-02-28T09:27:29;5.70;99.90
51837;DHT22;38941;53.254;6.600;2023-02-28T09:29:30;6.10;99.90
51837;DHT22;38941;53.254;6.600;2023-02-28T09:31:31;6.80;99.90
51837;DHT22;38941;53.254;6.600;2023-02-28T09:33:33;7.20;99.90
51837;DHT22;38941;53.254;6.600;2023-02-28T09:35:34;7.60;99.90
51837;DHT22;38941;53.254;6.600;2023-02-28T09:37:37;8.20;99.90
51837;DHT22;38941;53.254;6.600;2023-02-28T09:39:38;8.60;99.90
51837;DHT22;38941;53.254;6.600;2023-02-28T09:41:42;9.20;99.90
51837;DHT22;38941;53.254;6.600;2023-02-28T09:43:53;10.00;99.90
51837;DHT22;38941;53.254;6.600;2023-02-28T09:46:18;11.20;99.90
51837;DHT22;38941;53.254;6.600;2023-02-28T09:48:27;12.20;99.90
51837;DHT22;38941;53.254;6.600;2023-02-28T09:50:35;13.00;99.90
51837;DHT22;38941;53.254;6.600;2023-02-28T09:52:38;12.90;99.90
51837;DHT22;38941;53.254;6.600;2023-02-28T09:54:39;14.20;99.90
51837;DHT22;38941;53.254;6.600;2023-02-28T09:56:41;14.60;99.90
51837;DHT22;38941;53.254;6.600;2023-02-28T09:58:49;14.80;99.90
51837;DHT22;38941;53.254;6.600;2023-02-28T10:01:02;14.90;99.90
51837;DHT22;38941;53.254;6.600;2023-02-28T10:03:27;14.80;99.90
51837;DHT22;38941;53.254;6.600;2023-02-28T10:05:35;14.70;99.90
51837;DHT22;38941;53.254;6.600;2023-02-28T10:09:54;14.50;99.90
51837;DHT22;38941;53.254;6.600;2023-02-28T10:12:02;14.60;99.90
51837;DHT22;38941;53.254;6.600;2023-02-28T10:14:20;14.70;99.90
51837;DHT22;38941;53.254;6.600;2023-02-28T10:16:48;14.70;99.90
51837;DHT22;38941;53.254;6.600;2023-02-28T10:19:01;14.60;99.90
51837;DHT22;38941;53.254;6.600;2023-02-28T10:21:04;14.20;99.90
51837;DHT22;38941;53.254;6.600;2023-02-28T10:23:13;14.10;99.90
51837;DHT22;38941;53.254;6.600;2023-02-28T10:25:21;14.20;99.90
51837;DHT22;38941;53.254;6.600;2023-02-28T10:27:25;14.00;99.90
51837;DHT22;38941;53.254;6.600;2023-02-28T10:29:27;13.90;99.90
51837;DHT22;38941;53.254;6.600;2023-02-28T10:31:29;13.50;99.90
51837;DHT22;38941;53.254;6.600;2023-02-28T10:33:35;13.30;99.90
51837;DHT22;38941;53.254;6.600;2023-02-28T10:35:36;13.30;99.90
51837;DHT22;38941;53.254;6.600;2023-02-28T10:37:41;13.20;99.90
51837;DHT22;38941;53.254;6.600;2023-02-28T10:39:44;13.30;99.90
51837;DHT22;38941;53.254;6.600;2023-02-28T10:41:46;13.50;99.90
51837;DHT22;38941;53.254;6.600;2023-02-28T10:43:47;13.60;99.20
51837;DHT22;38941;53.254;6.600;2023-02-28T10:46:14;13.40;98.20
51837;DHT22;38941;53.254;6.600;2023-02-28T10:52:53;13.80;95.40
51837;DHT22;38941;53.254;6.600;2023-02-28T10:55:15;14.00;97.00
51837;DHT22;38941;53.254;6.600;2023-02-28T10:57:20;14.00;93.10
51837;DHT22;38941;53.254;6.600;2023-02-28T10:59:28;13.90;95.30
51837;DHT22;38941;53.254;6.600;2023-02-28T11:01:44;14.20;94.60
51837;DHT22;38941;53.254;6.600;2023-02-28T11:03:47;14.50;92.70
51837;DHT22;38941;53.254;6.600;2023-02-28T11:05:48;14.60;94.40
51837;DHT22;38941;53.254;6.600;2023-02-28T11:08:05;14.80;94.00
51837;DHT22;38941;53.254;6.600;2023-02-28T11:10:19;14.80;92.60
51837;DHT22;38941;53.254;6.600;2023-02-28T11:14:26;15.10;90.80
51837;DHT22;38941;53.254;6.600;2023-02-28T11:16:35;15.00;90.10
51837;DHT22;38941;53.254;6.600;2023-02-28T11:18:46;14.90;86.80
51837;DHT22;38941;53.254;6.600;2023-02-28T11:20:52;15.10;89.20
51837;DHT22;38941;53.254;6.600;2023-02-28T11:22:55;15.40;85.60
51837;DHT22;38941;53.254;6.600;2023-02-28T11:25:00;15.60;87.10
51837;DHT22;38941;53.254;6.600;2023-02-28T11:27:02;15.90;84.50
51837;DHT22;38941;53.254;6.600;2023-02-28T11:29:31;16.10;82.70
51837;DHT22;38941;53.254;6.600;2023-02-28T11:31:31;16.10;76.10
51837;DHT22;38941;53.254;6.600;2023-02-28T11:33:44;16.20;80.00
51837;DHT22;38941;53.254;6.600;2023-02-28T11:35:45;16.40;78.90
51837;DHT22;38941;53.254;6.600;2023-02-28T11:37:48;16.70;78.60
51837;DHT22;38941;53.254;6.600;2023-02-28T11:39:49;17.00;76.50
51837;DHT22;38941;53.254;6.600;2023-02-28T11:42:34;17.00;76.00
51837;DHT22;38941;53.254;6.600;2023-02-28T11:46:59;16.50;74.90
51837;DHT22;38941;53.254;6.600;2023-02-28T11:51:28;15.40;69.20
51837;DHT22;38941;53.254;6.600;2023-02-28T11:55:54;15.00;72.60
51837;DHT22;38941;53.254;6.600;2023-02-28T11:58:21;14.70;70.10
51837;DHT22;38941;53.254;6.600;2023-02-28T12:13:29;13.20;72.30
51837;DHT22;38941;53.254;6.600;2023-02-28T12:15:54;13.40;74.80
51837;DHT22;38941;53.254;6.600;2023-02-28T12:27:07;14.30;73.50
51837;DHT22;38941;53.254;6.600;2023-02-28T12:29:15;14.80;71.70
51837;DHT22;38941;53.254;6.600;2023-02-28T12:31:21;14.90;71.60
51837;DHT22;38941;53.254;6.600;2023-02-28T12:33:28;15.00;70.20
51837;DHT22;38941;53.254;6.600;2023-02-28T12:35:57;15.30;70.40
51837;DHT22;38941;53.254;6.600;2023-02-28T12:38:17;15.10;66.50
51837;DHT22;38941;53.254;6.600;2023-02-28T12:40:25;14.70;66.50
51837;DHT22;38941;53.254;6.600;2023-02-28T12:42:32;14.60;69.30
51837;DHT22;38941;53.254;6.600;2023-02-28T12:44:59;14.70;69.00
51837;DHT22;38941;53.254;6.600;2023-02-28T12:47:03;14.70;66.40
51837;DHT22;38941;53.254;6.600;2023-02-28T12:49:36;15.10;68.80
51837;DHT22;38941;53.254;6.600;2023-02-28T12:51:35;15.40;68.90
51837;DHT22;38941;53.254;6.600;2023-02-28T12:53:57;15.60;69.60
51837;DHT22;38941;53.254;6.600;2023-02-28T12:58:56;15.60;67.40
51837;DHT22;38941;53.254;6.600;2023-02-28T13:01:25;15.90;66.20
51837;DHT22;38941;53.254;6.600;2023-02-28T13:10:50;16.10;64.40
51837;DHT22;38941;53.254;6.600;2023-02-28T13:12:55;16.10;66.20
51837;DHT22;38941;53.254;6.600;2023-02-28T13:15:19;16.40;65.50
51837;DHT22;38941;53.254;6.600;2023-02-28T13:17:24;16.40;63.50
51837;DHT22;38941;53.254;6.600;2023-02-28T13:19:31;16.60;63.80
51837;DHT22;38941;53.254;6.600;2023-02-28T13:21:42;16.90;63.60
51837;DHT22;38941;53.254;6.600;2023-02-28T13:25:58;17.20;61.80
51837;DHT22;38941;53.254;6.600;2023-02-28T13:28:07;17.40;61.90
51837;DHT22;38941;53.254;6.600;2023-02-28T13:35:37;18.10;57.30
51837;DHT22;38941;53.254;6.600;2023-02-28T13:37:45;18.20;55.40
51837;DHT22;38941;53.254;6.600;2023-02-28T13:51:48;18.90;54.20
51837;DHT22;38941;53.254;6.600;2023-02-28T13:54:06;19.30;51.50
51837;DHT22;38941;53.254;6.600;2023-02-28T13:56:37;19.20;53.50
51837;DHT22;38941;53.254;6.600;2023-02-28T14:05:36;17.40;55.90
51837;DHT22;38941;53.254;6.600;2023-02-28T14:08:04;16.80;56.00
51837;DHT22;38941;53.254;6.600;2023-02-28T14:10:06;16.40;53.10
51837;DHT22;38941;53.254;6.600;2023-02-28T14:16:48;17.90;54.90
51837;DHT22;38941;53.254;6.600;2023-02-28T14:18:51;18.30;53.20
51837;DHT22;38941;53.254;6.600;2023-02-28T14:20:59;18.90;52.50
51837;DHT22;38941;53.254;6.600;2023-02-28T14:25:37;20.00;49.30
51837;DHT22;38941;53.254;6.600;2023-02-28T14:36:52;22.10;44.50
51837;DHT22;38941;53.254;6.600;2023-02-28T14:39:00;22.40;45.40
51837;DHT22;38941;53.254;6.600;2023-02-28T14:41:05;22.80;44.30
51837;DHT22;38941;53.254;6.600;2023-02-28T14:43:22;23.20;44.30
51837;DHT22;38941;53.254;6.600;2023-02-28T14:45:24;23.70;42.10
51837;DHT22;38941;53.254;6.600;2023-02-28T14:47:30;23.90;43.50
51837;DHT22;38941;53.254;6.600;2023-02-28T14:49:36;24.00;42.30
51837;DHT22;38941;53.254;6.600;2023-02-28T14:51:38;24.10;40.90
51837;DHT22;38941;53.254;6.600;2023-02-28T14:53:42;23.90;41.30
51837;DHT22;38941;53.254;6.600;2023-02-28T14:55:48;24.00;40.50
51837;DHT22;38941;53.254;6.600;2023-02-28T14:57:58;24.10;40.30
51837;DHT22;38941;53.254;6.600;2023-02-28T15:00:06;24.00;38.80
51837;DHT22;38941;53.254;6.600;2023-02-28T15:02:23;23.80;40.20
51837;DHT22;38941;53.254;6.600;2023-02-28T15:04:27;23.60;38.30
51837;DHT22;38941;53.254;6.600;2023-02-28T15:06:28;23.60;39.50
51837;DHT22;38941;53.254;6.600;2023-02-28T15:08:30;23.50;39.50
51837;DHT22;38941;53.254;6.600;2023-02-28T15:10:35;23.30;39.20
51837;DHT22;38941;53.254;6.600;2023-02-28T15:12:37;23.40;39.20
51837;DHT22;38941;53.254;6.600;2023-02-28T15:14:42;23.60;39.40
51837;DHT22;38941;53.254;6.600;2023-02-28T15:16:45;23.60;38.50
51837;DHT22;38941;53.254;6.600;2023-02-28T15:18:59;23.40;39.40
51837;DHT22;38941;53.254;6.600;2023-02-28T15:21:07;23.60;37.30
51837;DHT22;38941;53.254;6.600;2023-02-28T15:23:11;23.60;38.10